createdAt,value
2017-06-09T00:01:58.865Z,12.30
2017-06-09T00:04:26.317Z,12.30
2017-06-09T00:06:53.781Z,12.40
2017-06-09T00:18:01.475Z,12.10
2017-06-09T00:20:29.694Z,12.40
2017-06-09T00:22:57.149Z,12.40
2017-06-09T00:25:24.605Z,12.40
2017-06-09T00:27:52.068Z,12.40
2017-06-09T00:30:19.519Z,12.50
2017-06-09T00:32:46.977Z,12.40
2017-06-09T00:35:14.428Z,11.90
2017-06-09T00:37:41.893Z,11.90
2017-06-09T00:40:09.346Z,12.20
2017-06-09T00:42:36.810Z,12.40
2017-06-09T00:45:04.282Z,12.40
2017-06-09T00:47:31.739Z,12.40
2017-06-09T00:49:59.178Z,12.20
2017-06-09T00:52:26.640Z,12.10
2017-06-09T00:54:54.098Z,12.10
2017-06-09T00:57:21.561Z,12.00
2017-06-09T00:59:49.033Z,12.00
2017-06-09T01:02:16.481Z,12.00
2017-06-09T01:04:43.955Z,12.00
2017-06-09T01:07:11.417Z,12.00
2017-06-09T01:24:22.479Z,11.80
2017-06-09T01:26:49.947Z,11.80
2017-06-09T01:29:17.398Z,11.80
2017-06-09T01:31:44.854Z,11.70
2017-06-09T01:34:12.309Z,11.80
2017-06-09T01:36:39.773Z,11.90
2017-06-09T01:39:07.222Z,12.00
2017-06-09T01:41:34.685Z,11.90
2017-06-09T01:44:02.129Z,12.00
2017-06-09T01:46:29.625Z,11.90
2017-06-09T01:48:57.058Z,11.90
2017-06-09T01:51:24.512Z,12.00
2017-06-09T01:53:51.965Z,11.90
2017-06-09T01:56:19.418Z,11.90
2017-06-09T01:58:46.891Z,11.90
2017-06-09T02:01:14.340Z,11.70
2017-06-09T02:03:41.802Z,11.70
2017-06-09T02:06:09.257Z,11.70
2017-06-09T02:08:36.713Z,11.70
2017-06-09T02:11:21.037Z,11.60
2017-06-09T02:13:48.505Z,11.60
2017-06-09T02:16:15.953Z,11.60
2017-06-09T02:18:43.426Z,11.70
2017-06-09T02:21:10.890Z,11.70
2017-06-09T02:23:38.363Z,11.70
2017-06-09T02:26:05.821Z,11.70
2017-06-09T02:28:34.045Z,11.40
2017-06-09T02:31:01.511Z,11.40
2017-06-09T02:33:28.957Z,11.40
2017-06-09T02:35:56.413Z,11.50
2017-06-09T02:38:23.857Z,11.50
2017-06-09T02:40:51.333Z,11.40
2017-06-09T02:43:18.789Z,11.50
2017-06-09T02:45:46.265Z,11.60
2017-06-09T02:48:13.725Z,11.50
2017-06-09T02:50:41.181Z,11.40
2017-06-09T02:53:08.649Z,11.50
2017-06-09T02:55:36.098Z,11.70
2017-06-09T02:58:03.566Z,12.00
2017-06-09T03:00:31.011Z,12.30
2017-06-09T03:02:58.470Z,12.40
2017-06-09T03:05:25.922Z,12.50
2017-06-09T03:07:53.394Z,12.60
2017-06-09T03:10:41.947Z,12.50
2017-06-09T03:13:09.401Z,12.40
2017-06-09T03:15:36.858Z,12.30
2017-06-09T03:18:04.317Z,12.20
2017-06-09T03:20:31.773Z,12.40
2017-06-09T03:22:59.240Z,12.50
2017-06-09T03:25:26.686Z,12.50
2017-06-09T03:27:54.133Z,12.50
2017-06-09T03:30:21.597Z,12.50
2017-06-09T03:33:07.857Z,12.40
2017-06-09T03:35:35.319Z,12.30
2017-06-09T03:38:02.766Z,12.30
2017-06-09T03:40:30.229Z,12.30
2017-06-09T03:42:57.673Z,12.40
2017-06-09T03:45:25.146Z,12.50
2017-06-09T03:47:52.598Z,12.60
2017-06-09T03:50:20.070Z,12.80
2017-06-09T03:52:47.530Z,13.00
2017-06-09T03:55:15.009Z,13.20
2017-06-09T03:57:43.261Z,13.30
2017-06-09T04:00:10.711Z,13.40
2017-06-09T04:02:38.184Z,13.50
2017-06-09T04:05:05.633Z,13.60
2017-06-09T04:07:33.102Z,13.70
2017-06-09T04:12:55.505Z,13.60
2017-06-09T04:15:22.970Z,13.70
2017-06-09T04:17:50.424Z,13.90
2017-06-09T04:20:17.865Z,14.00
2017-06-09T04:22:45.330Z,14.20
2017-06-09T04:25:12.794Z,14.40
2017-06-09T04:27:40.253Z,14.60
2017-06-09T04:30:07.703Z,14.70
2017-06-09T04:32:35.175Z,14.70
2017-06-09T04:35:02.624Z,14.80
2017-06-09T04:37:30.077Z,14.90
2017-06-09T04:39:57.525Z,15.10
2017-06-09T04:42:25.733Z,15.40
2017-06-09T04:44:53.217Z,15.40
2017-06-09T04:47:20.669Z,15.40
2017-06-09T04:49:48.141Z,15.60
2017-06-09T04:52:15.589Z,15.60
2017-06-09T04:54:43.055Z,15.80
2017-06-09T04:57:10.498Z,16.00
2017-06-09T04:59:37.958Z,16.20
2017-06-09T05:02:05.414Z,16.30
2017-06-09T05:04:32.909Z,16.60
2017-06-09T05:07:01.135Z,16.40
2017-06-09T05:09:28.603Z,16.40
2017-06-09T05:11:56.053Z,16.40
2017-06-09T05:14:23.517Z,16.50
2017-06-09T05:16:50.969Z,16.50
2017-06-09T05:19:18.417Z,16.50
2017-06-09T05:21:45.889Z,16.30
2017-06-09T05:24:13.336Z,16.10
2017-06-09T05:26:40.793Z,16.00
2017-06-09T05:29:08.570Z,16.20
2017-06-09T05:31:36.021Z,16.50
2017-06-09T05:34:03.473Z,16.60
2017-06-09T05:36:30.933Z,16.80
2017-06-09T05:38:58.398Z,16.90
2017-06-09T05:41:25.872Z,17.10
2017-06-09T05:43:53.313Z,17.30
2017-06-09T05:46:20.780Z,17.50
2017-06-09T05:48:48.238Z,17.60
2017-06-09T05:51:15.693Z,17.80
2017-06-09T05:53:43.165Z,17.80
2017-06-09T05:56:10.613Z,17.80
2017-06-09T05:58:38.087Z,18.10
2017-06-09T06:01:05.551Z,18.10
2017-06-09T06:03:33.024Z,18.10
2017-06-09T06:06:00.460Z,18.10
2017-06-09T06:08:28.692Z,18.30
2017-06-09T06:10:56.137Z,18.30
2017-06-09T06:13:23.600Z,18.50
2017-06-09T06:15:51.046Z,18.90
2017-06-09T06:18:18.524Z,19.40
2017-06-09T06:20:45.977Z,19.60
2017-06-09T06:23:13.430Z,19.70
2017-06-09T06:25:40.903Z,19.60
2017-06-09T06:28:08.349Z,19.60
2017-06-09T06:30:35.810Z,19.50
2017-06-09T06:33:03.253Z,19.50
2017-06-09T06:35:30.723Z,19.50
2017-06-09T06:37:58.176Z,19.40
2017-06-09T06:40:25.641Z,19.20
2017-06-09T06:42:53.093Z,19.20
2017-06-09T06:45:20.555Z,19.30
2017-06-09T06:47:48.002Z,19.50
2017-06-09T06:50:15.463Z,19.70
2017-06-09T06:52:42.913Z,20.30
2017-06-09T06:55:10.369Z,20.80
2017-06-09T06:57:37.842Z,21.10
2017-06-09T07:00:05.286Z,21.50
2017-06-09T07:02:32.745Z,21.30
2017-06-09T07:05:00.190Z,21.10
2017-06-09T07:07:27.662Z,20.80
2017-06-09T07:09:55.113Z,21.10
2017-06-09T07:12:22.581Z,21.50
2017-06-09T07:14:50.048Z,22.20
2017-06-09T07:17:17.557Z,22.60
2017-06-09T07:19:45.001Z,22.80
2017-06-09T07:22:12.466Z,22.80
2017-06-09T07:24:39.906Z,22.70
2017-06-09T07:27:08.116Z,22.50
2017-06-09T07:29:35.578Z,22.50
2017-06-09T07:32:03.034Z,22.20
2017-06-09T07:34:30.489Z,21.70
2017-06-09T07:36:57.954Z,21.20
2017-06-09T07:39:25.421Z,21.00
2017-06-09T07:41:52.881Z,21.00
2017-06-09T07:44:20.347Z,20.60
2017-06-09T07:46:47.785Z,20.60
2017-06-09T07:49:15.241Z,20.50
2017-06-09T07:51:42.697Z,20.60
2017-06-09T07:54:10.153Z,20.50
2017-06-09T07:56:37.606Z,20.50
2017-06-09T07:59:05.053Z,20.40
2017-06-09T08:01:32.513Z,20.40
2017-06-09T08:03:59.972Z,20.40
2017-06-09T08:06:27.426Z,20.30
2017-06-09T08:08:54.875Z,20.50
2017-06-09T08:11:22.339Z,20.50
2017-06-09T08:13:49.786Z,20.80
2017-06-09T08:16:17.246Z,20.90
2017-06-09T08:18:44.690Z,20.60
2017-06-09T08:21:12.160Z,20.70
2017-06-09T08:23:39.623Z,20.60
2017-06-09T08:26:07.110Z,20.60
2017-06-09T08:28:34.558Z,20.60
2017-06-09T08:31:02.020Z,20.80
2017-06-09T08:33:29.486Z,20.80
2017-06-09T08:35:56.930Z,20.40
2017-06-09T08:38:24.389Z,20.60
2017-06-09T08:40:51.837Z,20.40
2017-06-09T08:43:19.301Z,20.60
2017-06-09T08:45:46.761Z,20.80
2017-06-09T08:48:14.224Z,21.00
2017-06-09T08:50:41.661Z,21.00
2017-06-09T08:53:09.125Z,21.30
2017-06-09T08:55:36.573Z,21.40
2017-06-09T08:58:04.046Z,21.50
2017-06-09T09:00:31.493Z,21.90
2017-06-09T09:02:58.967Z,21.70
2017-06-09T09:05:26.417Z,21.50
2017-06-09T09:07:53.872Z,21.70
2017-06-09T09:10:27.601Z,22.00
2017-06-09T09:12:55.049Z,22.70
2017-06-09T09:15:22.509Z,23.70
2017-06-09T09:17:49.962Z,23.80
2017-06-09T09:20:17.513Z,23.80
2017-06-09T09:22:44.979Z,23.70
2017-06-09T09:25:12.452Z,23.50
2017-06-09T09:27:40.661Z,22.50
2017-06-09T09:30:08.109Z,22.40
2017-06-09T09:32:35.594Z,22.30
2017-06-09T09:35:03.030Z,22.40
2017-06-09T09:37:30.498Z,22.90
2017-06-09T09:39:57.945Z,23.70
2017-06-09T09:42:25.417Z,24.20
2017-06-09T09:44:52.882Z,23.90
2017-06-09T09:47:20.367Z,24.10
2017-06-09T09:49:47.813Z,24.20
2017-06-09T09:52:15.277Z,24.50
2017-06-09T09:54:42.723Z,24.60
2017-06-09T09:57:10.173Z,24.80
2017-06-09T09:59:37.640Z,25.10
2017-06-09T10:02:05.086Z,25.20
2017-06-09T10:04:32.545Z,25.00
2017-06-09T10:06:59.998Z,24.80
2017-06-09T10:09:27.458Z,24.60
2017-06-09T10:11:54.905Z,24.60
2017-06-09T10:14:22.361Z,24.40
2017-06-09T10:16:49.817Z,24.20
2017-06-09T10:19:17.282Z,24.40
2017-06-09T10:21:44.730Z,24.50
2017-06-09T10:24:12.198Z,24.50
2017-06-09T10:26:39.641Z,24.50
2017-06-09T10:29:07.115Z,24.50
2017-06-09T10:31:34.565Z,24.10
2017-06-09T10:34:02.009Z,24.10
2017-06-09T10:36:29.490Z,24.00
2017-06-09T10:38:56.949Z,23.80
2017-06-09T10:41:24.405Z,22.90
2017-06-09T10:43:51.854Z,22.70
2017-06-09T10:46:19.314Z,22.70
2017-06-09T10:48:46.769Z,22.70
2017-06-09T10:51:14.230Z,22.50
2017-06-09T10:53:41.683Z,22.10
2017-06-09T10:56:09.129Z,21.80
2017-06-09T10:58:36.586Z,21.80
2017-06-09T11:01:04.033Z,21.30
2017-06-09T11:03:31.490Z,20.80
2017-06-09T11:05:58.943Z,20.20
2017-06-09T11:08:26.415Z,19.70
2017-06-09T11:10:53.874Z,19.00
2017-06-09T11:13:21.337Z,18.50
2017-06-09T11:15:48.781Z,18.10
2017-06-09T11:18:16.247Z,17.70
2017-06-09T11:20:43.694Z,17.40
2017-06-09T11:23:11.157Z,17.10
2017-06-09T11:25:38.605Z,16.90
2017-06-09T11:28:06.061Z,16.80
2017-06-09T11:30:33.521Z,16.80
2017-06-09T11:33:00.973Z,16.80
2017-06-09T11:35:28.441Z,16.80
2017-06-09T11:37:55.889Z,16.80
2017-06-09T11:40:23.355Z,16.90
2017-06-09T11:42:50.809Z,16.90
2017-06-09T11:45:18.269Z,17.00
2017-06-09T11:47:45.721Z,17.10
2017-06-09T11:50:13.177Z,17.20
2017-06-09T11:52:40.633Z,17.10
2017-06-09T11:55:08.089Z,17.00
2017-06-09T11:57:35.560Z,16.90
2017-06-09T12:00:03.005Z,17.10
2017-06-09T12:02:30.472Z,17.40
2017-06-09T12:04:57.917Z,17.80
2017-06-09T12:07:25.390Z,18.00
2017-06-09T12:09:52.853Z,18.30
2017-06-09T12:12:20.325Z,18.60
2017-06-09T12:14:47.773Z,18.70
2017-06-09T12:17:15.241Z,18.90
2017-06-09T12:19:42.697Z,19.30
2017-06-09T12:22:10.165Z,19.50
2017-06-09T12:24:37.609Z,19.60
2017-06-09T12:27:05.060Z,19.50
2017-06-09T12:29:32.524Z,19.50
2017-06-09T12:31:59.982Z,19.80
2017-06-09T12:34:27.829Z,20.30
2017-06-09T12:36:55.289Z,21.00
2017-06-09T12:39:22.753Z,21.70
2017-06-09T12:41:50.505Z,22.40
2017-06-09T12:44:17.966Z,22.80
2017-06-09T12:46:45.434Z,23.00
2017-06-09T12:49:12.906Z,23.00
2017-06-09T12:51:40.346Z,22.80
2017-06-09T12:54:07.821Z,22.90
2017-06-09T12:56:35.274Z,23.20
2017-06-09T12:59:02.725Z,23.80
2017-06-09T13:01:30.197Z,24.30
2017-06-09T13:03:58.406Z,24.60
2017-06-09T13:06:25.864Z,24.60
2017-06-09T13:08:53.312Z,25.40
2017-06-09T13:11:20.787Z,25.60
2017-06-09T13:13:48.225Z,24.80
2017-06-09T13:16:15.685Z,23.80
2017-06-09T13:18:43.133Z,23.60
2017-06-09T13:21:10.594Z,24.20
2017-06-09T13:23:38.046Z,25.20
2017-06-09T13:26:06.269Z,26.70
2017-06-09T13:28:33.729Z,26.70
2017-06-09T13:31:01.177Z,26.90
2017-06-09T13:33:28.641Z,26.80
2017-06-09T13:35:56.093Z,26.50
2017-06-09T13:38:23.552Z,26.00
2017-06-09T13:40:51.013Z,25.70
2017-06-09T13:43:18.485Z,25.10
2017-06-09T13:45:45.934Z,24.50
2017-06-09T13:48:13.398Z,23.90
2017-06-09T13:50:40.854Z,23.80
2017-06-09T13:53:08.313Z,23.70
2017-06-09T13:55:35.769Z,23.60
2017-06-09T13:58:03.225Z,23.80
2017-06-09T14:00:30.679Z,24.10
2017-06-09T14:02:58.189Z,24.20
2017-06-09T14:05:25.645Z,23.90
2017-06-09T14:07:53.097Z,23.80
2017-06-09T14:10:20.559Z,23.80
2017-06-09T14:12:48.025Z,23.30
2017-06-09T14:15:15.496Z,23.00
2017-06-09T14:17:42.932Z,22.50
2017-06-09T14:20:10.401Z,21.70
2017-06-09T14:22:37.844Z,20.90
2017-06-09T14:25:05.316Z,20.30
2017-06-09T14:27:32.767Z,19.70
2017-06-09T14:30:00.224Z,18.70
2017-06-09T14:32:27.700Z,18.60
2017-06-09T14:34:55.145Z,19.20
2017-06-09T14:37:22.602Z,19.80
2017-06-09T14:39:50.051Z,20.20
2017-06-09T14:42:17.521Z,20.20
2017-06-09T14:44:44.969Z,20.30
2017-06-09T14:47:12.448Z,19.90
2017-06-09T14:49:39.906Z,19.80
2017-06-09T14:52:07.350Z,19.60
2017-06-09T14:54:34.813Z,19.60
2017-06-09T14:57:02.256Z,19.60
2017-06-09T14:59:29.725Z,19.10
2017-06-09T15:01:57.172Z,18.30
2017-06-09T15:04:24.639Z,17.90
2017-06-09T15:06:52.085Z,17.80
2017-06-09T15:09:19.541Z,17.80
2017-06-09T15:11:46.997Z,17.80
2017-06-09T15:14:14.461Z,17.60
2017-06-09T15:16:41.932Z,17.50
2017-06-09T15:19:09.381Z,17.40
2017-06-09T15:21:36.853Z,17.40
2017-06-09T15:24:04.319Z,17.30
2017-06-09T15:26:31.768Z,17.30
2017-06-09T15:28:59.217Z,17.20
2017-06-09T15:31:26.677Z,17.10
2017-06-09T15:33:54.134Z,17.10
2017-06-09T15:36:21.597Z,17.10
2017-06-09T15:38:49.053Z,17.00
2017-06-09T15:41:16.519Z,16.70
2017-06-09T15:43:43.961Z,16.20
2017-06-09T15:46:11.418Z,15.80
2017-06-09T15:48:38.877Z,15.50
2017-06-09T15:51:06.333Z,15.40
2017-06-09T15:53:33.794Z,15.20
2017-06-09T15:56:01.242Z,14.90
2017-06-09T15:58:28.707Z,14.90
2017-06-09T16:00:56.154Z,14.80
2017-06-09T16:03:23.609Z,14.80
2017-06-09T16:05:51.058Z,14.80
2017-06-09T16:08:18.518Z,14.90
2017-06-09T16:10:45.966Z,14.90
2017-06-09T16:13:13.429Z,15.10
2017-06-09T16:15:40.885Z,15.30
2017-06-09T16:18:08.337Z,15.20
2017-06-09T16:20:35.798Z,15.40
2017-06-09T16:23:03.252Z,16.00
2017-06-09T16:25:30.724Z,16.60
2017-06-09T16:27:58.166Z,17.00
2017-06-09T16:30:25.629Z,17.50
2017-06-09T16:32:53.077Z,17.90
2017-06-09T16:35:20.549Z,18.40
2017-06-09T16:37:47.994Z,18.60
2017-06-09T16:40:15.457Z,18.90
2017-06-09T16:42:42.905Z,18.70
2017-06-09T16:45:10.362Z,18.30
2017-06-09T16:47:37.821Z,18.30
2017-06-09T16:50:05.287Z,18.70
2017-06-09T16:52:32.742Z,19.00
2017-06-09T16:55:00.189Z,19.10
2017-06-09T16:57:27.663Z,19.10
2017-06-09T16:59:55.101Z,19.10
2017-06-09T17:02:22.562Z,18.90
2017-06-09T17:04:50.010Z,18.70
2017-06-09T17:07:17.474Z,18.50
2017-06-09T17:09:44.925Z,18.30
2017-06-09T17:12:12.399Z,18.10
2017-06-09T17:14:39.838Z,18.00
2017-06-09T17:17:07.301Z,18.10
2017-06-09T17:19:34.745Z,18.00
2017-06-09T17:22:02.190Z,18.10
2017-06-09T17:24:29.656Z,18.10
2017-06-09T17:26:57.101Z,18.10
2017-06-09T17:29:24.557Z,18.10
2017-06-09T17:31:52.005Z,18.10
2017-06-09T17:34:20.232Z,18.10
2017-06-09T17:36:47.677Z,18.10
2017-06-09T17:39:15.153Z,18.00
2017-06-09T17:41:42.600Z,18.10
2017-06-09T17:44:10.070Z,18.10
2017-06-09T17:46:37.536Z,18.10
2017-06-09T17:49:05.005Z,18.00
2017-06-09T17:51:32.445Z,17.90
2017-06-09T17:53:59.901Z,18.00
2017-06-09T17:56:27.358Z,18.00
2017-06-09T17:58:54.806Z,18.10
2017-06-09T18:01:22.393Z,18.10
2017-06-09T18:03:49.841Z,18.30
2017-06-09T18:06:17.297Z,18.30
2017-06-09T18:08:44.746Z,18.30
2017-06-09T18:11:12.305Z,18.30
2017-06-09T18:13:39.874Z,18.30
2017-06-09T18:16:07.345Z,18.30
2017-06-09T18:18:34.793Z,18.30
2017-06-09T18:21:02.282Z,18.30
2017-06-09T18:23:29.736Z,18.30
2017-06-09T18:25:57.185Z,18.20
2017-06-09T18:28:25.422Z,18.20
2017-06-09T18:30:52.878Z,18.10
2017-06-09T18:33:20.351Z,18.10
2017-06-09T18:35:47.793Z,18.10
2017-06-09T18:38:15.362Z,18.10
2017-06-09T18:40:42.809Z,17.90
2017-06-09T18:43:10.265Z,17.80
2017-06-09T18:45:37.718Z,17.80
2017-06-09T18:48:05.184Z,17.70
2017-06-09T18:50:32.630Z,17.70
2017-06-09T18:53:00.210Z,17.60
2017-06-09T18:55:27.649Z,17.60
2017-06-09T18:57:55.106Z,17.60
2017-06-09T19:00:22.565Z,17.50
2017-06-09T19:02:50.025Z,17.40
2017-06-09T19:05:17.477Z,17.30
2017-06-09T19:07:44.926Z,17.20
2017-06-09T19:10:12.509Z,17.00
2017-06-09T19:12:40.065Z,17.00
2017-06-09T19:15:07.525Z,16.80
2017-06-09T19:17:35.077Z,16.60
2017-06-09T19:20:02.525Z,16.60
2017-06-09T19:22:29.985Z,16.40
2017-06-09T19:24:57.441Z,16.10
2017-06-09T19:27:25.005Z,15.90
2017-06-09T19:29:52.577Z,15.80
2017-06-09T19:32:20.033Z,15.70
2017-06-09T19:34:47.493Z,15.50
2017-06-09T19:37:14.957Z,15.40
2017-06-09T19:39:42.430Z,15.30
2017-06-09T19:42:09.875Z,15.20
2017-06-09T19:44:38.114Z,15.00
2017-06-09T19:47:05.561Z,15.00
2017-06-09T19:49:33.012Z,14.80
2017-06-09T19:52:00.469Z,14.60
2017-06-09T19:54:27.918Z,14.20
2017-06-09T19:56:55.381Z,13.90
2017-06-09T19:59:22.838Z,13.60
2017-06-09T20:01:50.309Z,13.50
2017-06-09T20:04:17.754Z,13.30
2017-06-09T20:06:45.213Z,13.20
2017-06-09T20:09:12.666Z,13.00
2017-06-09T20:11:40.129Z,13.00
2017-06-09T20:14:07.581Z,13.00
2017-06-09T20:16:35.043Z,12.90
2017-06-09T20:19:02.493Z,13.00
2017-06-09T20:21:29.950Z,13.20
2017-06-09T20:23:57.397Z,13.20
2017-06-09T20:26:24.866Z,13.20
2017-06-09T20:28:52.321Z,13.30
2017-06-09T20:31:19.785Z,13.30
2017-06-09T20:33:47.245Z,13.40
2017-06-09T20:36:14.724Z,13.40
2017-06-09T20:38:42.161Z,13.40
2017-06-09T20:41:09.613Z,13.40
2017-06-09T20:43:37.069Z,13.30
2017-06-09T20:46:04.521Z,13.10
2017-06-09T20:48:31.982Z,12.90
2017-06-09T20:50:59.438Z,12.70
2017-06-09T20:53:26.893Z,12.50
2017-06-09T20:55:54.350Z,12.40
2017-06-09T20:58:21.821Z,12.40
2017-06-09T21:00:49.273Z,12.30
2017-06-09T21:03:16.721Z,12.20
2017-06-09T21:05:44.188Z,12.20
2017-06-09T21:08:11.637Z,12.10
2017-06-09T21:10:39.098Z,12.10
2017-06-09T21:13:06.554Z,12.20
2017-06-09T21:15:34.041Z,12.20
2017-06-09T21:18:01.489Z,12.20
2017-06-09T21:20:28.974Z,12.30
2017-06-09T21:22:56.417Z,12.40
2017-06-09T21:25:23.873Z,12.30
2017-06-09T21:27:51.340Z,12.40
2017-06-09T21:30:18.781Z,12.30
2017-06-09T21:32:46.241Z,12.20
2017-06-09T21:35:13.690Z,12.30
2017-06-09T21:37:41.145Z,12.30
2017-06-09T21:40:08.600Z,12.20
2017-06-09T21:42:36.045Z,12.30
2017-06-09T21:45:03.510Z,12.20
2017-06-09T21:47:30.957Z,12.30
2017-06-09T21:49:58.421Z,12.30
2017-06-09T21:52:25.870Z,12.30
2017-06-09T21:54:53.332Z,12.30
2017-06-09T21:57:20.789Z,12.40
2017-06-09T21:59:48.241Z,12.40
2017-06-09T22:02:15.719Z,12.40
2017-06-09T22:04:43.176Z,12.30
2017-06-09T22:07:10.626Z,12.30
2017-06-09T22:09:38.077Z,12.30
2017-06-09T22:12:05.550Z,12.20
2017-06-09T22:14:32.993Z,12.20
2017-06-09T22:17:00.441Z,12.10
2017-06-09T22:19:27.897Z,12.10
2017-06-09T22:21:55.362Z,12.00
2017-06-09T22:24:22.822Z,11.90
2017-06-09T22:26:50.277Z,11.80
2017-06-09T22:29:17.739Z,11.70
2017-06-09T22:31:45.185Z,11.60
2017-06-09T22:34:12.634Z,11.50
2017-06-09T22:36:40.094Z,11.40
2017-06-09T22:39:07.541Z,11.30
2017-06-09T22:41:35.012Z,11.30
2017-06-09T22:44:02.477Z,11.20
2017-06-09T22:46:29.950Z,11.10
2017-06-09T22:48:57.405Z,11.10
2017-06-09T22:51:24.850Z,11.10
2017-06-09T22:53:52.317Z,11.20
2017-06-09T22:56:19.761Z,11.30
2017-06-09T22:58:47.217Z,11.30
2017-06-09T23:01:14.683Z,11.40
2017-06-09T23:03:42.156Z,11.30
2017-06-09T23:06:09.593Z,11.30
2017-06-09T23:08:37.040Z,11.30
2017-06-09T23:11:04.602Z,11.10
2017-06-09T23:13:32.054Z,10.90
2017-06-09T23:15:59.633Z,10.80
2017-06-09T23:18:27.201Z,10.60
2017-06-09T23:20:54.645Z,10.60
2017-06-09T23:23:22.109Z,10.50
2017-06-09T23:25:53.467Z,10.50
2017-06-09T23:28:20.926Z,10.40
2017-06-09T23:30:48.377Z,10.40
2017-06-09T23:33:17.773Z,10.60
2017-06-09T23:35:45.237Z,10.70
2017-06-09T23:38:12.789Z,10.80
2017-06-09T23:40:40.313Z,10.80
2017-06-09T23:43:07.770Z,10.80
2017-06-09T23:45:35.227Z,10.70
2017-06-09T23:48:02.699Z,10.60
2017-06-09T23:50:30.141Z,10.60
2017-06-09T23:52:57.612Z,10.70
2017-06-09T23:55:25.155Z,10.70
2017-06-09T23:57:52.649Z,10.50
